OIAH  Gachsaran Airport

Add Bookmark

Iran

Status
Operational
Latitude Longitude
30° 20' 15" N 50° 49' 40" E
30.337601 50.827999
Local (DST + 5) UTC (GMT + 4)
Jul 23, 2014 06:00 Jul 23, 2014 01:30
Sunrise-Sunset Local UTC
Begin Civil Twilight 05:51 01:21
Sunrise 06:18 01:48
Sunset 08:07 15:37
End Civil Twilight 08:34 16:04

Current Weather

METAR Observed VFR
OIAH 230000Z 00000KT CAVOK 27/01 Q1002 Wed, Jul 23, 2014 @ 00:00 UTC
(1 Hour, 30 Minutes ago)
Visual Flight Rules

Decoded METAR

Wind Visibility Clouds Conditions
Calm 10 km or more
  • Clear skies
  • No significant weather
Temperatures Readings Precipitation
Current Temp 27°C (81°F)
Dewpoint 1°C (34°F)
Humidity 18%
Altimeter 29.59"Hg
Sea Level Pressure 1002mb
Field Elevation 2421.26'
None Recorded

Additional weather within a 92.6km radius of OIAH

Map ICAO Location METAR
OISY 79.6km E (059°) 30 mins ago

24 Hour Weather History

Loading
-

24 Hour Weather Graphs

Loading
-

CheckWX.com is intended as a tool to help pilots better visualize weather data. It is not intended as a substitute for an official weather briefing obtained from a Flight Service Station. CheckWX.com does not meet the FAA requirements for an official pre-flight weather briefing. Therefore, it's important that pilots still call and obtain an official FSS pre-flight weather briefing.